Terminal Aerodrome Forecast
Issued by NWS Bismarck, ND

Home | Current Version | Previous Version | Graphics & Text | Print | Product List | Glossary On
Versions: 1 2 3 4 5 6 7 8 9 10 11 12 13 14 15 16 17 18
000
FTUS43 KBIS 242000 AAA
TAFBIS
TAF AMD
KBIS 242052Z 2421/2518 32016KT 6SM -RA SCT010 OVC035
     FM242200 32011KT 6SM -RA BR OVC010
     FM250300 32011KT 3SM -SN BR OVC010
     FM250900 35009KT P6SM OVC020=

USA.gov is the U.S. government's official web portal to all federal, state and local government web resources and services.